createdAt,value
2018-06-11T00:01:03.617Z,18.80
2018-06-11T00:03:36.683Z,18.70
2018-06-11T00:06:09.811Z,18.70
2018-06-11T00:11:15.711Z,18.50
2018-06-11T00:13:48.732Z,18.50
2018-06-11T00:16:21.766Z,18.40
2018-06-11T00:18:54.781Z,18.40
2018-06-11T00:21:27.782Z,18.30
2018-06-11T00:24:00.820Z,18.20
2018-06-11T00:26:33.866Z,18.10
2018-06-11T00:29:06.906Z,18.10
2018-06-11T00:31:39.926Z,18.10
2018-06-11T00:34:12.995Z,18.10
2018-06-11T00:36:46.019Z,18.10
2018-06-11T00:39:19.046Z,18.10
2018-06-11T00:41:52.042Z,18.20
2018-06-11T00:44:25.087Z,18.20
2018-06-11T00:46:58.143Z,18.30
2018-06-11T00:49:31.205Z,18.30
2018-06-11T00:52:04.205Z,18.30
2018-06-11T00:54:37.240Z,18.30
2018-06-11T00:57:10.238Z,18.40
2018-06-11T00:59:43.307Z,18.30
2018-06-11T01:02:16.318Z,18.30
2018-06-11T01:04:49.416Z,18.30
2018-06-11T01:07:22.451Z,18.20
2018-06-11T01:09:55.527Z,18.20
2018-06-11T01:12:28.567Z,18.10
2018-06-11T01:15:01.608Z,18.10
2018-06-11T01:17:34.607Z,18.00
2018-06-11T01:20:07.655Z,18.00
2018-06-11T01:22:40.686Z,18.00
2018-06-11T01:25:13.756Z,18.00
2018-06-11T01:27:46.784Z,17.90
2018-06-11T01:30:19.828Z,17.80
2018-06-11T01:32:52.847Z,17.80
2018-06-11T01:35:25.895Z,17.80
2018-06-11T01:37:58.954Z,17.80
2018-06-11T01:40:32.038Z,17.70
2018-06-11T01:43:09.043Z,17.70
2018-06-11T01:45:42.043Z,17.70
2018-06-11T01:48:15.156Z,17.60
2018-06-11T01:50:48.248Z,17.50
2018-06-11T01:53:21.357Z,17.50
2018-06-11T01:55:54.372Z,17.40
2018-06-11T01:58:27.623Z,17.30
2018-06-11T02:01:00.654Z,17.30
2018-06-11T02:03:33.778Z,17.30
2018-06-11T02:06:06.932Z,17.20
2018-06-11T02:08:40.974Z,17.20
2018-06-11T02:11:14.035Z,17.20
2018-06-11T02:13:47.077Z,17.20
2018-06-11T02:16:20.336Z,17.10
2018-06-11T02:18:53.377Z,17.10
2018-06-11T02:23:59.378Z,17.10
2018-06-11T02:26:32.423Z,17.10
2018-06-11T02:29:05.437Z,17.00
2018-06-11T02:31:38.476Z,17.00
2018-06-11T02:34:11.611Z,17.00
2018-06-11T02:36:44.638Z,17.00
2018-06-11T02:39:17.627Z,17.00
2018-06-11T02:41:50.669Z,17.00
2018-06-11T02:44:23.677Z,17.00
2018-06-11T02:46:56.750Z,17.10
2018-06-11T02:49:29.780Z,17.00
2018-06-11T02:52:02.810Z,17.10
2018-06-11T02:54:35.835Z,17.10
2018-06-11T02:57:08.876Z,17.10
2018-06-11T02:59:41.889Z,17.10
2018-06-11T03:02:14.926Z,17.10
2018-06-11T03:04:47.914Z,17.10
2018-06-11T03:07:20.948Z,17.10
2018-06-11T03:09:53.961Z,17.00
2018-06-11T03:12:26.994Z,17.00
2018-06-11T03:15:00.014Z,16.90
2018-06-11T03:17:33.041Z,16.90
2018-06-11T03:20:06.210Z,17.00
2018-06-11T03:22:39.258Z,17.00
2018-06-11T03:25:12.279Z,17.10
2018-06-11T03:27:45.310Z,17.20
2018-06-11T03:30:18.311Z,17.20
2018-06-11T03:32:51.396Z,17.20
2018-06-11T03:35:24.474Z,17.20
2018-06-11T03:37:57.544Z,17.20
2018-06-11T03:40:31.646Z,17.30
2018-06-11T03:43:04.688Z,17.30
2018-06-11T03:45:37.711Z,17.20
2018-06-11T03:48:10.776Z,17.20
2018-06-11T03:50:43.846Z,17.10
2018-06-11T03:53:16.905Z,17.20
2018-06-11T03:55:49.932Z,17.20
2018-06-11T03:58:22.938Z,17.20
2018-06-11T04:00:55.967Z,17.30
2018-06-11T04:03:28.987Z,17.30
2018-06-11T04:06:01.994Z,17.20
2018-06-11T04:08:35.034Z,17.30
2018-06-11T04:11:08.075Z,17.20
2018-06-11T04:13:41.064Z,17.30
2018-06-11T04:16:14.062Z,17.30
2018-06-11T04:18:47.085Z,17.40
2018-06-11T04:21:20.101Z,17.40
2018-06-11T04:23:53.126Z,17.50
2018-06-11T04:26:26.143Z,17.50
2018-06-11T04:28:59.150Z,17.50
2018-06-11T04:31:32.203Z,17.50
2018-06-11T04:34:15.537Z,17.60
2018-06-11T04:36:48.547Z,17.60
2018-06-11T04:39:21.581Z,17.60
2018-06-11T04:41:54.582Z,17.70
2018-06-11T04:44:27.631Z,17.70
2018-06-11T04:47:00.641Z,17.70
2018-06-11T04:49:33.674Z,17.80
2018-06-11T04:52:06.674Z,17.80
2018-06-11T04:57:13.313Z,17.80
2018-06-11T04:59:46.389Z,17.80
2018-06-11T05:02:19.419Z,17.80
2018-06-11T05:04:52.458Z,17.80
2018-06-11T05:07:25.466Z,17.90
2018-06-11T05:09:58.502Z,17.90
2018-06-11T05:12:31.497Z,17.90
2018-06-11T05:15:04.505Z,17.90
2018-06-11T05:17:37.522Z,17.90
2018-06-11T05:20:10.603Z,17.90
2018-06-11T05:22:43.596Z,17.90
2018-06-11T05:25:16.630Z,17.90
2018-06-11T05:27:49.629Z,17.90
2018-06-11T05:30:22.671Z,17.90
2018-06-11T05:32:55.690Z,18.00
2018-06-11T05:35:28.745Z,18.00
2018-06-11T05:38:01.821Z,18.00
2018-06-11T05:40:34.808Z,18.10
2018-06-11T05:43:07.864Z,18.10
2018-06-11T05:45:40.898Z,18.10
2018-06-11T05:48:13.930Z,18.20
2018-06-11T05:50:47.435Z,18.20
2018-06-11T05:53:20.502Z,18.20
2018-06-11T05:55:53.486Z,18.20
2018-06-11T05:58:26.506Z,18.30
2018-06-11T06:00:59.616Z,18.30
2018-06-11T06:03:32.698Z,18.40
2018-06-11T06:06:05.742Z,18.40
2018-06-11T06:08:39.575Z,18.40
2018-06-11T06:11:13.365Z,18.50
2018-06-11T06:16:19.234Z,18.60
2018-06-11T06:18:52.268Z,18.70
2018-06-11T06:21:26.712Z,18.80
2018-06-11T06:24:00.113Z,18.90
2018-06-11T06:26:33.577Z,19.00
2018-06-11T06:29:06.815Z,19.00
2018-06-11T06:31:40.685Z,19.10
2018-06-11T06:34:13.743Z,19.10
2018-06-11T06:36:46.717Z,19.10
2018-06-11T06:39:19.710Z,19.10
2018-06-11T06:41:53.040Z,19.00
2018-06-11T06:44:26.475Z,19.00
2018-06-11T06:47:01.850Z,19.00
2018-06-11T06:49:34.919Z,19.00
2018-06-11T06:52:07.985Z,19.00
2018-06-11T06:54:40.996Z,19.00
2018-06-11T06:57:14.210Z,19.10
2018-06-11T06:59:47.273Z,19.10
2018-06-11T07:02:34.488Z,19.30
2018-06-11T07:05:07.503Z,19.30
2018-06-11T07:10:47.598Z,19.40
2018-06-11T07:13:20.655Z,19.50
2018-06-11T07:15:53.662Z,19.50
2018-06-11T07:18:26.948Z,19.60
2018-06-11T07:20:59.977Z,19.60
2018-06-11T07:23:33.002Z,19.70
2018-06-11T07:27:02.144Z,19.70
2018-06-11T07:29:35.150Z,19.70
2018-06-11T07:32:08.454Z,19.70
2018-06-11T07:34:41.494Z,19.70
2018-06-11T07:37:14.579Z,19.70
2018-06-11T07:39:47.609Z,19.70
2018-06-11T07:42:33.522Z,19.70
2018-06-11T07:45:11.260Z,19.70
2018-06-11T07:50:46.339Z,19.80
2018-06-11T07:53:19.350Z,19.80
2018-06-11T07:55:52.369Z,19.80
2018-06-11T07:58:25.366Z,19.90
2018-06-11T08:00:58.377Z,19.90
2018-06-11T08:06:04.284Z,20.10
2018-06-11T08:08:37.318Z,20.10
2018-06-11T08:11:10.350Z,20.10
2018-06-11T08:13:43.389Z,20.20
2018-06-11T08:16:16.403Z,20.20
2018-06-11T08:18:49.457Z,20.20
2018-06-11T08:21:22.457Z,20.30
2018-06-11T08:23:55.490Z,20.40
2018-06-11T08:26:28.518Z,20.50
2018-06-11T08:29:01.528Z,20.60
2018-06-11T08:31:34.556Z,20.70
2018-06-11T08:34:07.557Z,20.80
2018-06-11T08:36:40.591Z,20.90
2018-06-11T08:39:13.622Z,21.00
2018-06-11T08:41:46.666Z,21.00
2018-06-11T08:44:19.686Z,21.10
2018-06-11T08:46:52.722Z,21.10
2018-06-11T08:49:25.738Z,21.20
2018-06-11T08:51:58.768Z,21.20
2018-06-11T08:54:31.783Z,21.10
2018-06-11T08:57:04.798Z,21.10
2018-06-11T08:59:37.837Z,21.10
2018-06-11T09:02:10.902Z,21.20
2018-06-11T09:04:43.920Z,21.10
2018-06-11T09:09:49.771Z,21.10
2018-06-11T09:12:22.786Z,21.30
2018-06-11T09:14:55.814Z,21.30
2018-06-11T09:17:28.858Z,21.50
2018-06-11T09:20:01.892Z,21.60
2018-06-11T09:22:34.922Z,21.70
2018-06-11T09:25:07.938Z,21.70
2018-06-11T09:27:40.998Z,21.70
2018-06-11T09:30:14.005Z,21.80
2018-06-11T09:32:51.938Z,21.90
2018-06-11T09:35:24.966Z,22.10
2018-06-11T09:37:58.010Z,22.10
2018-06-11T09:40:31.034Z,22.10
2018-06-11T09:43:04.067Z,22.30
2018-06-11T09:45:37.082Z,22.50
2018-06-11T09:48:10.122Z,22.60
2018-06-11T09:50:43.160Z,22.60
2018-06-11T09:53:16.243Z,22.50
2018-06-11T09:55:49.293Z,22.50
2018-06-11T09:58:22.318Z,22.70
2018-06-11T10:03:28.167Z,22.60
2018-06-11T10:06:01.166Z,22.60
2018-06-11T10:08:34.213Z,22.40
2018-06-11T10:11:07.236Z,22.60
2018-06-11T10:13:49.870Z,22.80
2018-06-11T10:16:22.894Z,22.80
2018-06-11T10:18:55.922Z,22.80
2018-06-11T10:21:28.909Z,23.00
2018-06-11T10:24:01.929Z,23.20
2018-06-11T10:26:34.972Z,23.30
2018-06-11T10:29:07.995Z,23.50
2018-06-11T10:31:40.987Z,23.70
2018-06-11T10:34:13.979Z,23.90
2018-06-11T10:36:46.992Z,24.00
2018-06-11T10:39:19.984Z,23.90
2018-06-11T10:41:53.015Z,23.70
2018-06-11T10:44:26.010Z,23.80
2018-06-11T10:46:58.993Z,23.80
2018-06-11T10:49:32.015Z,23.70
2018-06-11T10:52:05.057Z,23.60
2018-06-11T10:54:38.093Z,23.80
2018-06-11T10:57:11.123Z,24.00
2018-06-11T10:59:44.187Z,24.10
2018-06-11T11:02:17.211Z,24.40
2018-06-11T11:04:50.267Z,24.40
2018-06-11T11:07:23.296Z,24.50
2018-06-11T11:09:57.220Z,24.60
2018-06-11T11:12:30.267Z,24.80
2018-06-11T11:17:36.158Z,25.00
2018-06-11T11:20:09.162Z,25.10
2018-06-11T11:22:42.198Z,25.10
2018-06-11T11:25:15.229Z,24.90
2018-06-11T11:27:48.257Z,25.10
2018-06-11T11:30:21.300Z,25.20
2018-06-11T11:32:54.314Z,25.30
2018-06-11T11:35:27.346Z,25.50
2018-06-11T11:38:00.358Z,25.40
2018-06-11T11:40:33.382Z,25.70
2018-06-11T11:43:06.397Z,25.90
2018-06-11T11:45:39.477Z,26.00
2018-06-11T11:48:12.486Z,26.00
2018-06-11T11:50:45.534Z,26.20
2018-06-11T11:53:18.605Z,26.20
2018-06-11T11:55:51.651Z,26.30
2018-06-11T11:58:24.687Z,26.20
2018-06-11T12:00:57.742Z,26.40
2018-06-11T12:03:30.805Z,26.40
2018-06-11T12:06:03.842Z,26.40
2018-06-11T12:11:09.756Z,26.70
2018-06-11T12:13:42.850Z,26.80
2018-06-11T12:16:15.881Z,26.90
2018-06-11T12:18:48.878Z,26.90
2018-06-11T12:21:21.926Z,27.10
2018-06-11T12:23:54.938Z,27.30
2018-06-11T12:26:28.106Z,27.00
2018-06-11T12:29:01.123Z,26.80
2018-06-11T12:31:34.212Z,27.00
2018-06-11T12:34:07.231Z,27.00
2018-06-11T12:36:40.270Z,27.20
2018-06-11T12:39:13.326Z,27.10
2018-06-11T12:41:46.375Z,27.20
2018-06-11T12:44:19.398Z,27.10
2018-06-11T12:46:52.479Z,27.00
2018-06-11T12:51:58.405Z,27.50
2018-06-11T12:54:31.457Z,27.70
2018-06-11T12:57:04.543Z,27.50
2018-06-11T12:59:37.557Z,27.40
2018-06-11T13:02:10.724Z,27.50
2018-06-11T13:04:43.755Z,27.50
2018-06-11T13:07:16.809Z,27.60
2018-06-11T13:09:49.875Z,27.80
2018-06-11T13:12:22.898Z,27.90
2018-06-11T13:14:55.920Z,27.70
2018-06-11T13:17:53.177Z,27.20
2018-06-11T13:20:26.222Z,27.00
2018-06-11T13:22:59.236Z,26.80
2018-06-11T13:25:32.325Z,26.80
2018-06-11T13:28:05.485Z,27.00
2018-06-11T13:30:38.537Z,27.20
2018-06-11T13:33:11.557Z,27.40
2018-06-11T13:35:44.618Z,27.30
2018-06-11T13:38:17.985Z,27.30
2018-06-11T13:40:51.043Z,27.50
2018-06-11T13:43:24.082Z,27.70
2018-06-11T13:45:57.170Z,27.60
2018-06-11T13:48:30.248Z,27.50
2018-06-11T13:51:03.306Z,27.70
2018-06-11T13:53:36.345Z,27.80
2018-06-11T13:56:09.425Z,27.80
2018-06-11T13:58:42.517Z,27.90
2018-06-11T14:01:15.559Z,28.20
2018-06-11T14:03:48.656Z,28.20
2018-06-11T14:06:21.718Z,28.00
2018-06-11T14:08:54.795Z,28.20
2018-06-11T14:11:27.824Z,28.20
2018-06-11T14:14:00.880Z,28.30
2018-06-11T14:16:33.893Z,28.30
2018-06-11T14:19:06.936Z,28.20
2018-06-11T14:21:39.973Z,27.90
2018-06-11T14:24:13.019Z,28.00
2018-06-11T14:26:46.066Z,27.90
2018-06-11T14:29:19.115Z,27.80
2018-06-11T14:31:52.115Z,27.90
2018-06-11T14:34:25.155Z,28.00
2018-06-11T14:39:31.110Z,28.20
2018-06-11T14:42:04.186Z,28.30
2018-06-11T14:44:37.259Z,28.20
2018-06-11T14:47:10.314Z,28.40
2018-06-11T14:49:43.361Z,28.50
2018-06-11T14:52:17.414Z,28.60
2018-06-11T14:54:50.413Z,28.50
2018-06-11T14:57:23.468Z,28.40
2018-06-11T14:59:56.503Z,28.40
2018-06-11T15:02:29.526Z,28.40
2018-06-11T15:05:02.591Z,28.30
2018-06-11T15:07:35.614Z,28.20
2018-06-11T15:10:08.665Z,28.30
2018-06-11T15:15:14.544Z,28.70
2018-06-11T15:20:20.686Z,28.30
2018-06-11T15:22:53.713Z,28.20
2018-06-11T15:25:26.800Z,28.40
2018-06-11T15:27:59.826Z,28.40
2018-06-11T15:30:32.898Z,28.30
2018-06-11T15:33:05.933Z,28.20
2018-06-11T15:35:38.990Z,27.90
2018-06-11T15:38:12.032Z,27.80
2018-06-11T15:40:45.105Z,27.70
2018-06-11T15:43:18.142Z,27.90
2018-06-11T15:45:51.202Z,28.20
2018-06-11T15:48:24.242Z,28.40
2018-06-11T15:50:57.262Z,28.20
2018-06-11T15:53:30.314Z,28.00
2018-06-11T15:58:36.969Z,27.40
2018-06-11T16:01:10.126Z,27.30
2018-06-11T16:03:43.151Z,27.40
2018-06-11T16:06:16.240Z,27.50
2018-06-11T16:08:49.238Z,27.60
2018-06-11T16:11:22.273Z,27.80
2018-06-11T16:13:55.353Z,27.90
2018-06-11T16:19:01.341Z,27.90
2018-06-11T16:21:34.462Z,27.60
2018-06-11T16:24:07.454Z,27.50
2018-06-11T16:26:40.474Z,27.40
2018-06-11T16:29:13.535Z,27.30
2018-06-11T16:31:46.599Z,27.20
2018-06-11T16:34:19.615Z,27.10
2018-06-11T16:36:52.674Z,27.10
2018-06-11T16:39:25.685Z,27.10
2018-06-11T16:41:58.727Z,27.00
2018-06-11T16:44:31.786Z,26.80
2018-06-11T16:47:04.813Z,26.70
2018-06-11T16:49:37.862Z,26.60
2018-06-11T16:52:10.926Z,26.50
2018-06-11T16:54:43.959Z,26.20
2018-06-11T16:57:17.072Z,26.10
2018-06-11T16:59:50.098Z,26.00
2018-06-11T17:04:56.059Z,25.70
2018-06-11T17:07:29.098Z,25.70
2018-06-11T17:10:02.163Z,25.70
2018-06-11T17:12:35.195Z,25.60
2018-06-11T17:15:08.206Z,25.60
2018-06-11T17:17:42.349Z,25.60
2018-06-11T17:20:15.427Z,25.60
2018-06-11T17:22:48.391Z,25.50
2018-06-11T17:25:21.440Z,25.40
2018-06-11T17:27:54.936Z,25.30
2018-06-11T17:30:28.069Z,25.30
2018-06-11T17:33:01.209Z,25.20
2018-06-11T17:35:34.197Z,25.20
2018-06-11T17:38:07.237Z,25.10
2018-06-11T17:40:40.250Z,25.10
2018-06-11T17:43:13.552Z,24.90
2018-06-11T17:45:47.066Z,24.90
2018-06-11T17:48:20.098Z,24.80
2018-06-11T17:50:53.106Z,24.80
2018-06-11T17:53:26.267Z,24.80
2018-06-11T17:55:59.266Z,24.80
2018-06-11T17:58:32.373Z,24.90
2018-06-11T18:01:05.367Z,24.90
2018-06-11T18:03:38.458Z,24.90
2018-06-11T18:06:11.607Z,24.90
2018-06-11T18:08:44.654Z,24.90
2018-06-11T18:11:17.802Z,24.90
2018-06-11T18:13:50.851Z,24.80
2018-06-11T18:16:24.022Z,24.80
2018-06-11T18:18:57.774Z,24.70
2018-06-11T18:21:31.049Z,24.70
2018-06-11T18:24:04.190Z,24.70
2018-06-11T18:26:38.075Z,24.70
2018-06-11T18:29:11.078Z,24.60
2018-06-11T18:31:44.134Z,24.60
2018-06-11T18:34:17.166Z,24.60
2018-06-11T18:36:50.205Z,24.50
2018-06-11T18:39:23.248Z,24.50
2018-06-11T18:41:56.275Z,24.50
2018-06-11T18:44:29.304Z,24.50
2018-06-11T18:47:02.350Z,24.50
2018-06-11T18:49:35.388Z,24.50
2018-06-11T18:52:08.632Z,24.50
2018-06-11T18:54:41.654Z,24.50
2018-06-11T18:59:47.626Z,24.50
2018-06-11T19:02:20.738Z,24.50
2018-06-11T19:04:53.761Z,24.50
2018-06-11T19:07:26.790Z,24.40
2018-06-11T19:09:59.823Z,24.40
2018-06-11T19:12:32.885Z,24.40
2018-06-11T19:15:05.958Z,24.30
2018-06-11T19:20:11.841Z,24.30
2018-06-11T19:22:44.844Z,24.20
2018-06-11T19:25:18.114Z,24.20
2018-06-11T19:27:51.112Z,24.10
2018-06-11T19:30:24.161Z,24.10
2018-06-11T19:32:57.224Z,24.00
2018-06-11T19:35:30.233Z,24.00
2018-06-11T19:38:03.281Z,24.00
2018-06-11T19:40:36.396Z,23.90
2018-06-11T19:43:09.417Z,23.90
2018-06-11T19:45:42.541Z,23.80
2018-06-11T19:48:15.712Z,23.70
2018-06-11T19:50:48.801Z,23.70
2018-06-11T19:53:21.855Z,23.60
2018-06-11T19:55:54.992Z,23.50
2018-06-11T19:58:28.129Z,23.50
2018-06-11T20:01:01.166Z,23.40
2018-06-11T20:03:34.235Z,23.40
2018-06-11T20:06:07.709Z,23.30
2018-06-11T20:08:40.765Z,23.30
2018-06-11T20:11:13.823Z,23.20
2018-06-11T20:13:46.855Z,23.10
2018-06-11T20:16:19.986Z,23.10
2018-06-11T20:18:52.997Z,23.00
2018-06-11T20:21:26.072Z,23.00
2018-06-11T20:23:59.089Z,22.90
2018-06-11T20:26:32.334Z,22.90
2018-06-11T20:29:05.372Z,22.80
2018-06-11T20:31:38.398Z,22.70
2018-06-11T20:34:11.419Z,22.70
2018-06-11T20:36:44.471Z,22.60
2018-06-11T20:39:17.456Z,22.50
2018-06-11T20:41:50.515Z,22.40
2018-06-11T20:44:23.526Z,22.30
2018-06-11T20:46:56.542Z,22.20
2018-06-11T20:49:29.579Z,22.10
2018-06-11T20:52:02.625Z,22.10
2018-06-11T20:54:35.650Z,21.90
2018-06-11T20:57:08.667Z,21.80
2018-06-11T20:59:41.669Z,21.60
2018-06-11T21:02:14.686Z,21.50
2018-06-11T21:04:47.706Z,21.40
2018-06-11T21:07:20.810Z,21.40
2018-06-11T21:09:53.826Z,21.30
2018-06-11T21:12:26.842Z,21.20
2018-06-11T21:14:59.907Z,21.10
2018-06-11T21:17:32.930Z,20.80
2018-06-11T21:20:06.047Z,20.60
2018-06-11T21:22:39.119Z,20.40
2018-06-11T21:25:12.119Z,20.30
2018-06-11T21:27:45.187Z,20.10
2018-06-11T21:30:18.254Z,20.00
2018-06-11T21:32:51.341Z,20.00
2018-06-11T21:35:24.362Z,19.90
2018-06-11T21:37:57.378Z,19.90
2018-06-11T21:40:30.406Z,19.90
2018-06-11T21:43:03.419Z,19.90
2018-06-11T21:45:36.402Z,19.90
2018-06-11T21:48:09.418Z,19.80
2018-06-11T21:50:42.399Z,19.80
2018-06-11T21:53:15.402Z,19.80
2018-06-11T21:55:48.379Z,19.80
2018-06-11T21:58:21.389Z,19.80
2018-06-11T22:03:27.252Z,19.80
2018-06-11T22:06:00.249Z,19.80
2018-06-11T22:08:33.273Z,19.80
2018-06-11T22:11:06.287Z,19.80
2018-06-11T22:13:39.311Z,19.80
2018-06-11T22:16:12.302Z,19.80
2018-06-11T22:18:45.330Z,19.80
2018-06-11T22:21:18.352Z,19.80
2018-06-11T22:23:51.425Z,19.70
2018-06-11T22:26:24.477Z,19.70
2018-06-11T22:28:57.510Z,19.70
2018-06-11T22:31:30.523Z,19.70
2018-06-11T22:34:03.537Z,19.60
2018-06-11T22:36:36.552Z,19.60
2018-06-11T22:39:09.575Z,19.50
2018-06-11T22:41:42.570Z,19.50
2018-06-11T22:44:15.701Z,19.50
2018-06-11T22:46:48.694Z,19.40
2018-06-11T22:49:21.713Z,19.40
2018-06-11T22:51:54.709Z,19.30
2018-06-11T22:54:27.742Z,19.20
2018-06-11T22:57:00.726Z,19.10
2018-06-11T22:59:33.737Z,18.90
2018-06-11T23:02:06.736Z,18.80
2018-06-11T23:04:39.782Z,18.80
2018-06-11T23:07:12.767Z,18.70
2018-06-11T23:09:45.767Z,18.70
2018-06-11T23:12:19.458Z,18.60
2018-06-11T23:14:52.502Z,18.50
2018-06-11T23:17:25.498Z,18.50
2018-06-11T23:19:58.590Z,18.40
2018-06-11T23:22:31.610Z,18.40
2018-06-11T23:25:04.687Z,18.30
2018-06-11T23:27:37.781Z,18.30
2018-06-11T23:30:10.832Z,18.30
2018-06-11T23:32:43.850Z,18.20
2018-06-11T23:35:16.906Z,18.20
2018-06-11T23:37:49.889Z,18.20
2018-06-11T23:40:22.953Z,18.10
2018-06-11T23:42:57.245Z,18.10
2018-06-11T23:45:32.158Z,18.00
2018-06-11T23:48:05.256Z,17.90
2018-06-11T23:50:38.291Z,17.90
2018-06-11T23:53:11.415Z,17.80
2018-06-11T23:55:46.128Z,17.80
2018-06-11T23:58:20.029Z,17.70
